createdAt,value
2019-02-15T00:02:18.983Z,-1.56
2019-02-15T00:04:47.504Z,-1.55
2019-02-15T00:07:17.072Z,-1.61
2019-02-15T00:09:45.537Z,-1.60
2019-02-15T00:12:14.537Z,-1.65
2019-02-15T00:14:50.038Z,-1.75
2019-02-15T00:17:20.216Z,-1.69
2019-02-15T00:19:50.751Z,-1.75
2019-02-15T00:22:19.314Z,-1.79
2019-02-15T00:24:47.751Z,-1.75
2019-02-15T00:27:16.194Z,-1.71
2019-02-15T00:29:44.728Z,-1.87
2019-02-15T00:32:13.335Z,-1.72
2019-02-15T00:34:42.051Z,-1.77
2019-02-15T00:37:11.235Z,-1.74
2019-02-15T00:39:40.548Z,-1.81
2019-02-15T00:42:09.271Z,-1.85
2019-02-15T00:44:37.735Z,-1.83
2019-02-15T00:47:24.785Z,-1.89
2019-02-15T00:49:54.893Z,-1.95
2019-02-15T00:52:25.241Z,-1.96
2019-02-15T00:54:58.980Z,-1.86
2019-02-15T00:57:29.237Z,-1.99
2019-02-15T00:59:59.566Z,-2.15
2019-02-15T01:02:29.665Z,-2.16
2019-02-15T01:05:08.588Z,-2.07
2019-02-15T01:07:42.163Z,-2.13
2019-02-15T01:10:15.261Z,-2.14
2019-02-15T01:12:48.438Z,-2.04
2019-02-15T01:15:16.957Z,-2.15
2019-02-15T01:17:45.702Z,-2.05
2019-02-15T01:20:14.987Z,-1.99
2019-02-15T01:22:44.265Z,-2.09
2019-02-15T01:25:13.755Z,-1.93
2019-02-15T01:27:44.336Z,-2.16
2019-02-15T01:30:17.853Z,-2.18
2019-02-15T01:32:48.372Z,-2.22
2019-02-15T01:35:24.903Z,-2.34
2019-02-15T01:37:55.396Z,-2.29
2019-02-15T01:40:38.264Z,-2.35
2019-02-15T01:43:26.785Z,-2.41
2019-02-15T01:45:57.167Z,-2.35
2019-02-15T01:48:25.872Z,-2.28
2019-02-15T01:50:55.004Z,-2.15
2019-02-15T01:53:23.841Z,-2.25
2019-02-15T01:55:52.634Z,-2.35
2019-02-15T01:58:21.357Z,-2.25
2019-02-15T02:00:50.575Z,-2.43
2019-02-15T02:03:19.111Z,-2.49
2019-02-15T02:05:48.004Z,-2.32
2019-02-15T02:08:18.522Z,-2.22
2019-02-15T02:10:48.179Z,-2.36
2019-02-15T02:13:35.840Z,-2.28
2019-02-15T02:16:23.470Z,-2.28
2019-02-15T02:18:51.924Z,-2.37
2019-02-15T02:24:07.961Z,-2.47
2019-02-15T02:26:36.412Z,-2.47
2019-02-15T02:29:04.849Z,-2.57
2019-02-15T02:34:27.866Z,-2.58
2019-02-15T02:37:36.280Z,-2.54
2019-02-15T02:40:44.750Z,-2.57
2019-02-15T02:43:13.180Z,-2.53
2019-02-15T02:45:41.704Z,-2.67
2019-02-15T02:48:10.162Z,-2.73
2019-02-15T02:50:38.599Z,-2.79
2019-02-15T02:53:07.035Z,-2.75
2019-02-15T02:55:35.482Z,-2.72
2019-02-15T02:58:23.103Z,-2.75
2019-02-15T03:00:51.568Z,-2.74
2019-02-15T03:03:20.002Z,-2.67
2019-02-15T03:05:48.433Z,-2.86
2019-02-15T03:08:16.894Z,-2.61
2019-02-15T03:10:45.421Z,-2.58
2019-02-15T03:13:13.846Z,-2.62
2019-02-15T03:15:42.658Z,-2.72
2019-02-15T03:18:11.087Z,-2.77
2019-02-15T03:20:39.520Z,-2.82
2019-02-15T03:23:27.485Z,-2.87
2019-02-15T03:25:55.909Z,-2.91
2019-02-15T03:28:24.442Z,-2.90
2019-02-15T03:30:52.944Z,-2.92
2019-02-15T03:33:21.553Z,-2.90
2019-02-15T03:35:54.363Z,-2.87
2019-02-15T03:38:43.046Z,-2.87
2019-02-15T03:41:15.974Z,-2.92
2019-02-15T03:43:44.412Z,-3.05
2019-02-15T03:46:12.959Z,-2.97
2019-02-15T03:48:41.395Z,-2.92
2019-02-15T03:51:09.821Z,-2.95
2019-02-15T03:53:38.532Z,-2.89
2019-02-15T03:56:07.043Z,-2.90
2019-02-15T03:58:35.610Z,-2.89
2019-02-15T04:01:04.165Z,-2.95
2019-02-15T04:03:32.751Z,-3.10
2019-02-15T04:06:01.590Z,-2.99
2019-02-15T04:08:30.102Z,-3.04
2019-02-15T04:10:58.561Z,-3.10
2019-02-15T04:13:26.959Z,-2.95
2019-02-15T04:15:55.550Z,-3.01
2019-02-15T04:18:24.068Z,-3.10
2019-02-15T04:20:52.672Z,-3.02
2019-02-15T04:23:21.143Z,-3.09
2019-02-15T04:25:49.557Z,-2.92
2019-02-15T04:28:18.157Z,-2.88
2019-02-15T04:30:46.613Z,-2.78
2019-02-15T04:33:15.052Z,-3.04
2019-02-15T04:35:43.577Z,-2.85
2019-02-15T04:38:12.145Z,-3.02
2019-02-15T04:40:40.573Z,-3.08
2019-02-15T04:43:09.094Z,-3.07
2019-02-15T04:45:37.635Z,-2.99
2019-02-15T04:48:06.085Z,-3.08
2019-02-15T04:50:34.502Z,-3.01
2019-02-15T04:53:03.338Z,-3.07
2019-02-15T04:55:31.762Z,-3.09
2019-02-15T04:58:00.280Z,-3.06
2019-02-15T05:00:28.749Z,-3.13
2019-02-15T05:02:57.269Z,-3.04
2019-02-15T05:05:25.680Z,-3.21
2019-02-15T05:07:54.235Z,-3.35
2019-02-15T05:10:22.665Z,-3.24
2019-02-15T05:12:51.121Z,-3.34
2019-02-15T05:15:19.580Z,-3.25
2019-02-15T05:17:48.004Z,-3.34
2019-02-15T05:20:16.729Z,-3.37
2019-02-15T05:22:45.188Z,-3.40
2019-02-15T05:25:13.619Z,-3.37
2019-02-15T05:27:42.142Z,-3.48
2019-02-15T05:30:10.684Z,-3.47
2019-02-15T05:32:39.165Z,-3.42
2019-02-15T05:35:07.672Z,-3.32
2019-02-15T05:37:36.414Z,-3.31
2019-02-15T05:40:05.776Z,-3.41
2019-02-15T05:42:34.200Z,-3.33
2019-02-15T05:45:04.135Z,-3.33
2019-02-15T05:47:32.834Z,-3.31
2019-02-15T05:50:01.273Z,-3.33
2019-02-15T05:52:30.053Z,-3.31
2019-02-15T05:54:58.530Z,-3.38
2019-02-15T05:57:26.946Z,-3.31
2019-02-15T05:59:55.426Z,-3.23
2019-02-15T06:02:23.945Z,-3.28
2019-02-15T06:04:52.372Z,-3.37
2019-02-15T06:07:21.002Z,-3.32
2019-02-15T06:09:49.441Z,-3.32
2019-02-15T06:12:17.941Z,-3.36
2019-02-15T06:14:46.541Z,-3.29
2019-02-15T06:17:14.973Z,-3.15
2019-02-15T06:19:43.402Z,-3.20
2019-02-15T06:22:11.999Z,-3.19
2019-02-15T06:24:40.720Z,-3.31
2019-02-15T06:27:09.164Z,-3.39
2019-02-15T06:29:37.604Z,-3.32
2019-02-15T06:32:06.038Z,-3.31
2019-02-15T06:34:34.493Z,-3.36
2019-02-15T06:37:03.032Z,-3.30
2019-02-15T06:39:31.466Z,-3.34
2019-02-15T06:41:59.895Z,-3.22
2019-02-15T06:44:28.368Z,-3.30
2019-02-15T06:46:56.784Z,-3.26
2019-02-15T06:49:25.251Z,-3.24
2019-02-15T06:51:53.816Z,-3.37
2019-02-15T06:54:22.252Z,-3.24
2019-02-15T06:56:50.676Z,-3.18
2019-02-15T06:59:20.945Z,-3.18
2019-02-15T07:02:02.660Z,-3.22
2019-02-15T07:04:41.398Z,-3.30
2019-02-15T07:07:10.013Z,-3.26
2019-02-15T07:09:38.776Z,-3.11
2019-02-15T07:12:07.232Z,-3.08
2019-02-15T07:14:35.947Z,-3.06
2019-02-15T07:17:04.441Z,-3.01
2019-02-15T07:19:32.910Z,-2.90
2019-02-15T07:22:01.699Z,-2.81
2019-02-15T07:24:30.232Z,-2.82
2019-02-15T07:26:58.696Z,-2.66
2019-02-15T07:29:27.129Z,-2.60
2019-02-15T07:31:55.827Z,-2.58
2019-02-15T07:34:24.286Z,-2.43
2019-02-15T07:36:52.717Z,-2.33
2019-02-15T07:39:21.150Z,-2.26
2019-02-15T07:41:49.619Z,-2.19
2019-02-15T07:44:18.053Z,-2.00
2019-02-15T07:46:46.818Z,-2.00
2019-02-15T07:49:15.294Z,-1.89
2019-02-15T07:51:43.822Z,-1.81
2019-02-15T07:54:12.253Z,-1.65
2019-02-15T07:56:41.283Z,-1.45
2019-02-15T07:59:09.681Z,-1.43
2019-02-15T08:01:38.119Z,-1.28
2019-02-15T08:04:06.949Z,-1.23
2019-02-15T08:06:35.692Z,-1.06
2019-02-15T08:09:07.189Z,-1.11
2019-02-15T08:11:35.641Z,-1.01
2019-02-15T08:14:04.078Z,-0.85
2019-02-15T08:16:32.514Z,-0.85
2019-02-15T08:19:00.983Z,-0.74
2019-02-15T08:21:29.490Z,-0.63
2019-02-15T08:23:57.928Z,-0.49
2019-02-15T08:26:26.807Z,-0.37
2019-02-15T08:28:55.253Z,-0.28
2019-02-15T08:31:23.693Z,-0.16
2019-02-15T08:33:52.677Z,-0.13
2019-02-15T08:36:21.480Z,0.03
2019-02-15T08:38:49.891Z,0.19
2019-02-15T08:41:18.356Z,0.34
2019-02-15T08:43:47.222Z,0.45
2019-02-15T08:46:15.750Z,0.39
2019-02-15T08:48:46.173Z,0.57
2019-02-15T08:51:14.366Z,0.70
2019-02-15T08:53:42.797Z,0.93
2019-02-15T08:56:11.705Z,0.95
2019-02-15T08:58:40.182Z,1.11
2019-02-15T09:01:08.617Z,1.15
2019-02-15T09:03:37.936Z,1.30
2019-02-15T09:06:06.393Z,1.47
2019-02-15T09:08:34.826Z,1.64
2019-02-15T09:11:03.313Z,1.63
2019-02-15T09:13:31.760Z,1.87
2019-02-15T09:16:00.216Z,1.99
2019-02-15T09:18:28.799Z,2.08
2019-02-15T09:20:57.300Z,2.22
2019-02-15T09:23:26.686Z,2.34
2019-02-15T09:25:55.144Z,2.46
2019-02-15T09:28:29.152Z,2.58
2019-02-15T09:30:57.726Z,2.70
2019-02-15T09:33:26.972Z,2.83
2019-02-15T09:35:55.492Z,2.94
2019-02-15T09:38:24.242Z,2.99
2019-02-15T09:40:52.977Z,3.16
2019-02-15T09:43:21.768Z,3.22
2019-02-15T09:45:50.152Z,3.17
2019-02-15T09:48:18.833Z,3.42
2019-02-15T09:50:47.281Z,3.54
2019-02-15T09:53:15.716Z,3.58
2019-02-15T09:55:44.183Z,3.78
2019-02-15T09:58:12.708Z,3.90
2019-02-15T10:00:41.134Z,3.97
2019-02-15T10:03:09.605Z,4.25
2019-02-15T10:05:38.143Z,4.27
2019-02-15T10:08:06.638Z,4.48
2019-02-15T10:10:35.415Z,4.53
2019-02-15T10:13:03.917Z,4.60
2019-02-15T10:15:32.693Z,4.85
2019-02-15T10:18:01.161Z,5.04
2019-02-15T10:20:29.578Z,5.08
2019-02-15T10:22:58.007Z,5.12
2019-02-15T10:25:26.759Z,5.39
2019-02-15T10:27:55.279Z,5.49
2019-02-15T10:30:24.010Z,5.70
2019-02-15T10:32:52.476Z,5.73
2019-02-15T10:35:21.260Z,5.49
2019-02-15T10:37:49.688Z,5.49
2019-02-15T10:40:18.155Z,5.67
2019-02-15T10:42:46.904Z,5.86
2019-02-15T10:45:16.266Z,5.84
2019-02-15T10:47:44.742Z,5.76
2019-02-15T10:50:13.463Z,6.08
2019-02-15T10:52:41.954Z,6.20
2019-02-15T10:55:10.560Z,6.33
2019-02-15T10:57:39.076Z,6.53
2019-02-15T11:00:15.224Z,6.64
2019-02-15T11:02:43.972Z,6.62
2019-02-15T11:05:12.181Z,6.78
2019-02-15T11:07:40.959Z,6.72
2019-02-15T11:10:10.332Z,6.94
2019-02-15T11:12:38.760Z,7.09
2019-02-15T11:15:10.521Z,7.02
2019-02-15T11:17:38.945Z,7.29
2019-02-15T11:20:10.674Z,7.42
2019-02-15T11:22:39.640Z,7.33
2019-02-15T11:25:10.315Z,7.39
2019-02-15T11:27:38.771Z,7.47
2019-02-15T11:30:13.157Z,7.58
2019-02-15T11:32:41.589Z,7.78
2019-02-15T11:35:14.591Z,7.67
2019-02-15T11:37:43.041Z,7.86
2019-02-15T11:40:15.768Z,7.99
2019-02-15T11:42:44.193Z,8.28
2019-02-15T11:45:14.017Z,8.15
2019-02-15T11:47:42.449Z,8.23
2019-02-15T11:50:12.524Z,8.19
2019-02-15T11:52:41.269Z,8.38
2019-02-15T11:55:11.098Z,8.43
2019-02-15T11:57:39.566Z,8.47
2019-02-15T12:00:23.320Z,8.46
2019-02-15T12:02:52.087Z,8.78
2019-02-15T12:05:20.853Z,8.87
2019-02-15T12:07:49.409Z,8.76
2019-02-15T12:10:17.942Z,8.78
2019-02-15T12:12:46.424Z,8.77
2019-02-15T12:15:15.006Z,9.02
2019-02-15T12:17:43.438Z,9.21
2019-02-15T12:20:13.710Z,9.27
2019-02-15T12:22:42.238Z,9.25
2019-02-15T12:25:10.912Z,9.28
2019-02-15T12:27:39.345Z,9.43
2019-02-15T12:30:10.529Z,9.46
2019-02-15T12:32:38.962Z,9.61
2019-02-15T12:35:08.997Z,9.57
2019-02-15T12:37:37.520Z,9.74
2019-02-15T12:40:07.993Z,9.81
2019-02-15T12:42:36.426Z,9.79
2019-02-15T12:45:07.621Z,9.78
2019-02-15T12:47:36.514Z,9.89
2019-02-15T12:50:10.772Z,9.88
2019-02-15T12:52:39.249Z,10.08
2019-02-15T12:55:07.821Z,10.07
2019-02-15T12:57:36.422Z,10.11
2019-02-15T13:00:15.451Z,10.18
2019-02-15T13:02:44.288Z,10.21
2019-02-15T13:05:13.831Z,10.30
2019-02-15T13:07:42.765Z,10.39
2019-02-15T13:10:22.700Z,10.20
2019-02-15T13:12:51.582Z,10.35
2019-02-15T13:15:20.024Z,10.39
2019-02-15T13:17:48.550Z,10.49
2019-02-15T13:20:17.440Z,10.53
2019-02-15T13:22:45.968Z,10.63
2019-02-15T13:25:14.610Z,10.82
2019-02-15T13:27:43.069Z,10.84
2019-02-15T13:30:13.702Z,10.99
2019-02-15T13:32:42.540Z,11.03
2019-02-15T13:35:14.045Z,11.00
2019-02-15T13:37:42.796Z,11.01
2019-02-15T13:40:11.304Z,10.93
2019-02-15T13:42:39.755Z,11.08
2019-02-15T13:45:10.924Z,11.19
2019-02-15T13:47:39.331Z,11.21
2019-02-15T13:50:10.787Z,11.28
2019-02-15T13:52:39.251Z,11.37
2019-02-15T13:55:08.892Z,11.38
2019-02-15T13:57:38.342Z,11.57
2019-02-15T14:00:10.072Z,11.83
2019-02-15T14:02:38.555Z,11.92
2019-02-15T14:05:09.848Z,12.00
2019-02-15T14:07:38.271Z,11.92
2019-02-15T14:10:12.272Z,11.97
2019-02-15T14:12:41.084Z,11.93
2019-02-15T14:15:11.252Z,12.01
2019-02-15T14:17:44.962Z,12.03
2019-02-15T14:20:12.039Z,12.13
2019-02-15T14:22:40.469Z,12.07
2019-02-15T14:25:11.482Z,12.14
2019-02-15T14:27:40.325Z,12.00
2019-02-15T14:30:13.756Z,11.97
2019-02-15T14:32:42.181Z,12.08
2019-02-15T14:35:12.720Z,12.05
2019-02-15T14:37:41.145Z,12.04
2019-02-15T14:40:11.580Z,12.06
2019-02-15T14:42:40.107Z,12.15
2019-02-15T14:45:12.948Z,12.07
2019-02-15T14:47:41.376Z,12.03
2019-02-15T14:50:11.073Z,12.08
2019-02-15T14:52:40.515Z,12.07
2019-02-15T14:55:12.784Z,12.15
2019-02-15T14:57:41.232Z,12.26
2019-02-15T15:00:13.925Z,12.24
2019-02-15T15:02:42.658Z,12.20
2019-02-15T15:05:13.492Z,12.27
2019-02-15T15:07:41.998Z,12.33
2019-02-15T15:10:11.455Z,12.31
2019-02-15T15:12:40.165Z,12.27
2019-02-15T15:15:13.641Z,12.33
2019-02-15T15:17:42.225Z,12.28
2019-02-15T15:20:12.041Z,12.32
2019-02-15T15:22:40.542Z,12.37
2019-02-15T15:25:13.467Z,12.33
2019-02-15T15:27:41.929Z,12.29
2019-02-15T15:30:29.719Z,12.27
2019-02-15T15:35:32.605Z,12.16
2019-02-15T15:38:01.068Z,12.14
2019-02-15T15:40:29.510Z,12.19
2019-02-15T15:42:58.045Z,12.15
2019-02-15T15:45:45.625Z,12.10
2019-02-15T15:48:22.499Z,12.07
2019-02-15T15:50:44.580Z,12.00
2019-02-15T15:53:13.028Z,11.97
2019-02-15T15:55:41.459Z,11.92
2019-02-15T15:58:10.223Z,11.90
2019-02-15T16:00:58.116Z,11.91
2019-02-15T16:03:26.864Z,11.85
2019-02-15T16:05:55.297Z,11.82
2019-02-15T16:08:23.757Z,11.77
2019-02-15T16:10:52.491Z,11.56
2019-02-15T16:13:20.920Z,11.46
2019-02-15T16:15:49.377Z,11.34
2019-02-15T16:18:17.818Z,11.32
2019-02-15T16:20:46.238Z,11.15
2019-02-15T16:23:14.837Z,11.01
2019-02-15T16:25:43.276Z,10.91
2019-02-15T16:28:11.720Z,10.70
2019-02-15T16:33:13.946Z,10.18
2019-02-15T16:38:35.340Z,9.77
2019-02-15T16:41:04.166Z,9.62
2019-02-15T16:43:32.588Z,9.21
2019-02-15T16:46:01.113Z,9.19
2019-02-15T16:48:29.581Z,9.25
2019-02-15T16:50:58.014Z,9.04
2019-02-15T16:53:26.552Z,8.85
2019-02-15T16:55:55.012Z,8.85
2019-02-15T16:58:23.444Z,8.53
2019-02-15T17:00:51.969Z,8.13
2019-02-15T17:03:20.529Z,8.23
2019-02-15T17:05:49.297Z,8.00
2019-02-15T17:08:17.810Z,7.58
2019-02-15T17:10:46.365Z,7.17
2019-02-15T17:13:15.140Z,7.18
2019-02-15T17:15:43.558Z,6.82
2019-02-15T17:18:12.104Z,6.35
2019-02-15T17:20:40.523Z,6.32
2019-02-15T17:23:08.967Z,6.02
2019-02-15T17:25:37.513Z,6.43
2019-02-15T17:28:05.936Z,6.22
2019-02-15T17:30:53.848Z,6.14
2019-02-15T17:33:22.358Z,6.28
2019-02-15T17:35:50.790Z,6.35
2019-02-15T17:40:53.086Z,6.13
2019-02-15T17:43:40.801Z,5.91
2019-02-15T17:46:09.235Z,5.59
2019-02-15T17:48:37.659Z,5.36
2019-02-15T17:51:25.303Z,5.17
2019-02-15T17:53:53.835Z,5.10
2019-02-15T17:56:41.818Z,5.02
2019-02-15T17:59:10.229Z,4.81
2019-02-15T18:01:38.659Z,4.71
2019-02-15T18:04:07.108Z,4.63
2019-02-15T18:06:35.665Z,4.52
2019-02-15T18:09:44.122Z,4.24
2019-02-15T18:12:12.551Z,4.14
2019-02-15T18:14:40.980Z,3.95
2019-02-15T18:17:09.474Z,3.83
2019-02-15T18:19:46.930Z,3.70
2019-02-15T18:22:27.472Z,3.65
2019-02-15T18:24:55.894Z,3.43
2019-02-15T18:27:24.769Z,3.39
2019-02-15T18:29:53.557Z,3.39
2019-02-15T18:32:22.130Z,3.23
2019-02-15T18:40:33.037Z,3.12
2019-02-15T18:43:01.671Z,2.99
2019-02-15T18:45:30.204Z,3.06
2019-02-15T18:48:18.381Z,3.16
2019-02-15T18:51:06.181Z,2.95
2019-02-15T18:53:53.877Z,2.92
2019-02-15T18:56:41.701Z,2.92
2019-02-15T18:59:30.309Z,2.82
2019-02-15T19:02:18.097Z,2.73
2019-02-15T19:10:54.442Z,2.50
2019-02-15T19:13:42.267Z,2.40
2019-02-15T19:16:30.053Z,2.30
2019-02-15T19:19:17.883Z,2.36
2019-02-15T19:22:05.735Z,2.30
2019-02-15T19:27:47.635Z,2.11
2019-02-15T19:30:56.447Z,2.03
2019-02-15T19:33:44.124Z,2.20
2019-02-15T19:36:31.811Z,2.12
2019-02-15T19:39:40.258Z,1.93
2019-02-15T19:42:29.610Z,1.78
2019-02-15T19:48:45.127Z,1.91
2019-02-15T19:51:35.880Z,1.81
2019-02-15T19:54:23.706Z,1.64
2019-02-15T19:57:11.436Z,1.66
2019-02-15T20:03:06.022Z,1.40
2019-02-15T20:06:13.251Z,1.40
2019-02-15T20:09:01.035Z,1.35
2019-02-15T20:11:31.826Z,1.47
2019-02-15T20:14:19.631Z,1.25
2019-02-15T20:17:07.516Z,1.15
2019-02-15T20:19:55.248Z,1.04
2019-02-15T20:22:43.185Z,1.18
2019-02-15T20:31:37.006Z,0.92
2019-02-15T20:34:24.895Z,0.95
2019-02-15T20:37:12.803Z,0.94
2019-02-15T20:40:00.697Z,0.91
2019-02-15T20:43:09.264Z,0.97
2019-02-15T20:48:44.977Z,0.87
2019-02-15T20:51:13.588Z,0.81
2019-02-15T20:54:01.561Z,0.71
2019-02-15T20:56:49.359Z,0.75
2019-02-15T20:59:37.258Z,0.62
2019-02-15T21:02:25.804Z,0.64
2019-02-15T21:05:13.602Z,0.64
2019-02-15T21:08:01.745Z,0.59
2019-02-15T21:10:55.023Z,0.53
2019-02-15T21:13:20.701Z,0.48
2019-02-15T21:19:16.170Z,0.65
2019-02-15T21:22:04.090Z,0.61
2019-02-15T21:24:51.887Z,0.51
2019-02-15T21:30:13.274Z,0.40
2019-02-15T21:33:01.065Z,0.42
2019-02-15T21:35:49.296Z,0.53
2019-02-15T21:38:36.881Z,0.64
2019-02-15T21:41:24.589Z,0.59
2019-02-15T21:44:12.302Z,0.43
2019-02-15T21:47:00.123Z,0.42
2019-02-15T21:49:48.210Z,0.49
2019-02-15T21:52:16.715Z,0.57
2019-02-15T21:58:00.846Z,0.16
2019-02-15T22:01:02.263Z,0.24
2019-02-15T22:06:23.861Z,-0.08
2019-02-15T22:08:52.328Z,-0.16
2019-02-15T22:11:40.187Z,0.01
2019-02-15T22:14:08.743Z,-0.12
2019-02-15T22:16:37.513Z,-0.23
2019-02-15T22:19:06.068Z,-0.03
2019-02-15T22:24:22.060Z,-0.04
2019-02-15T22:26:50.792Z,-0.07
2019-02-15T22:29:38.734Z,-0.04
2019-02-15T22:32:07.256Z,-0.19
2019-02-15T22:34:36.612Z,-0.32
2019-02-15T22:37:05.072Z,-0.41
2019-02-15T22:39:33.502Z,-0.45
2019-02-15T22:42:21.245Z,-0.32
2019-02-15T22:44:49.770Z,-0.44
2019-02-15T22:47:18.287Z,-0.54
2019-02-15T22:49:46.995Z,-0.50
2019-02-15T22:52:17.091Z,-0.52
2019-02-15T22:54:45.517Z,-0.48
2019-02-15T22:57:13.968Z,-0.37
2019-02-15T22:59:42.485Z,-0.42
2019-02-15T23:02:50.876Z,-0.47
2019-02-15T23:05:19.466Z,-0.49
2019-02-15T23:08:07.119Z,-0.65
2019-02-15T23:10:35.620Z,-0.69
2019-02-15T23:16:12.374Z,-0.71
2019-02-15T23:18:40.809Z,-0.78
2019-02-15T23:21:09.255Z,-0.76
2019-02-15T23:23:37.979Z,-0.63
2019-02-15T23:26:06.411Z,-0.69
2019-02-15T23:28:34.843Z,-0.76
2019-02-15T23:31:22.628Z,-0.90
2019-02-15T23:33:51.053Z,-0.82
2019-02-15T23:36:19.573Z,-0.80
2019-02-15T23:38:48.030Z,-0.93
2019-02-15T23:41:16.532Z,-0.94
2019-02-15T23:43:44.953Z,-0.98
2019-02-15T23:46:13.421Z,-0.98
2019-02-15T23:49:00.991Z,-1.02
2019-02-15T23:51:29.783Z,-1.04
2019-02-15T23:53:58.560Z,-1.06
2019-02-15T23:56:26.984Z,-1.03
2019-02-15T23:58:55.460Z,-1.21
